sensor_id;sensor_type;location;lat;lon;timestamp;P1;durP1;ratioP1;P2;durP2;ratioP2
55082;SDS011;40978;52.850;6.506;2023-05-15T00:00:49;55.03;;;41.08;;
55082;SDS011;40978;52.850;6.506;2023-05-15T00:03:15;52.22;;;41.53;;
55082;SDS011;40978;52.850;6.506;2023-05-15T00:05:41;63.22;;;39.65;;
55082;SDS011;40978;52.850;6.506;2023-05-15T00:08:07;48.90;;;39.70;;
55082;SDS011;40978;52.850;6.506;2023-05-15T00:10:33;62.80;;;40.90;;
55082;SDS011;40978;52.850;6.506;2023-05-15T00:12:59;56.80;;;39.38;;
55082;SDS011;40978;52.850;6.506;2023-05-15T00:15:24;102.47;;;42.20;;
55082;SDS011;40978;52.850;6.506;2023-05-15T00:17:50;60.47;;;43.47;;
55082;SDS011;40978;52.850;6.506;2023-05-15T00:20:16;55.95;;;42.72;;
55082;SDS011;40978;52.850;6.506;2023-05-15T00:22:42;54.92;;;41.75;;
55082;SDS011;40978;52.850;6.506;2023-05-15T00:25:07;54.50;;;40.03;;
55082;SDS011;40978;52.850;6.506;2023-05-15T00:27:34;52.75;;;40.85;;
55082;SDS011;40978;52.850;6.506;2023-05-15T00:30:00;62.22;;;40.75;;
55082;SDS011;40978;52.850;6.506;2023-05-15T00:32:26;67.22;;;41.83;;
55082;SDS011;40978;52.850;6.506;2023-05-15T00:34:51;57.03;;;39.60;;
55082;SDS011;40978;52.850;6.506;2023-05-15T00:37:17;54.85;;;41.53;;
55082;SDS011;40978;52.850;6.506;2023-05-15T00:39:43;90.07;;;40.13;;
55082;SDS011;40978;52.850;6.506;2023-05-15T00:42:08;69.78;;;40.80;;
55082;SDS011;40978;52.850;6.506;2023-05-15T00:44:35;57.67;;;40.60;;
55082;SDS011;40978;52.850;6.506;2023-05-15T00:47:02;56.13;;;39.63;;
55082;SDS011;40978;52.850;6.506;2023-05-15T00:49:29;54.47;;;40.38;;
55082;SDS011;40978;52.850;6.506;2023-05-15T00:51:56;52.78;;;39.95;;
55082;SDS011;40978;52.850;6.506;2023-05-15T00:54:25;53.05;;;39.53;;
55082;SDS011;40978;52.850;6.506;2023-05-15T00:56:51;90.07;;;39.83;;
55082;SDS011;40978;52.850;6.506;2023-05-15T00:59:32;69.25;;;40.55;;
55082;SDS011;40978;52.850;6.506;2023-05-15T01:01:59;57.38;;;39.63;;
55082;SDS011;40978;52.850;6.506;2023-05-15T01:04:25;62.45;;;40.45;;
55082;SDS011;40978;52.850;6.506;2023-05-15T01:06:50;66.88;;;39.95;;
55082;SDS011;40978;52.850;6.506;2023-05-15T01:09:19;56.35;;;38.83;;
55082;SDS011;40978;52.850;6.506;2023-05-15T01:11:49;50.97;;;38.72;;
55082;SDS011;40978;52.850;6.506;2023-05-15T01:14:15;74.55;;;36.97;;
55082;SDS011;40978;52.850;6.506;2023-05-15T01:16:42;49.28;;;39.05;;
55082;SDS011;40978;52.850;6.506;2023-05-15T01:19:07;71.70;;;39.85;;
55082;SDS011;40978;52.850;6.506;2023-05-15T01:35:34;47.55;;;38.55;;
55082;SDS011;40978;52.850;6.506;2023-05-15T01:40:43;52.22;;;38.85;;
55082;SDS011;40978;52.850;6.506;2023-05-15T01:43:14;65.68;;;39.15;;
55082;SDS011;40978;52.850;6.506;2023-05-15T01:45:42;76.78;;;39.45;;
55082;SDS011;40978;52.850;6.506;2023-05-15T01:48:09;67.35;;;38.78;;
55082;SDS011;40978;52.850;6.506;2023-05-15T01:50:38;49.30;;;40.28;;
55082;SDS011;40978;52.850;6.506;2023-05-15T01:53:05;53.28;;;40.28;;
55082;SDS011;40978;52.850;6.506;2023-05-15T01:55:32;57.90;;;37.83;;
55082;SDS011;40978;52.850;6.506;2023-05-15T01:57:59;50.63;;;38.97;;
55082;SDS011;40978;52.850;6.506;2023-05-15T02:00:27;47.42;;;38.25;;
55082;SDS011;40978;52.850;6.506;2023-05-15T02:02:53;58.63;;;39.10;;
55082;SDS011;40978;52.850;6.506;2023-05-15T02:05:21;52.80;;;40.33;;
55082;SDS011;40978;52.850;6.506;2023-05-15T02:07:47;67.20;;;41.92;;
55082;SDS011;40978;52.850;6.506;2023-05-15T02:10:14;56.75;;;41.92;;
55082;SDS011;40978;52.850;6.506;2023-05-15T02:12:41;62.47;;;42.30;;
55082;SDS011;40978;52.850;6.506;2023-05-15T02:15:10;62.20;;;41.63;;
55082;SDS011;40978;52.850;6.506;2023-05-15T02:17:37;59.72;;;40.90;;
55082;SDS011;40978;52.850;6.506;2023-05-15T02:20:03;59.28;;;41.30;;
55082;SDS011;40978;52.850;6.506;2023-05-15T02:22:30;53.25;;;41.72;;
55082;SDS011;40978;52.850;6.506;2023-05-15T02:24:56;67.80;;;41.70;;
55082;SDS011;40978;52.850;6.506;2023-05-15T02:35:35;64.28;;;40.08;;
55082;SDS011;40978;52.850;6.506;2023-05-15T02:38:08;98.97;;;39.15;;
55082;SDS011;40978;52.850;6.506;2023-05-15T02:40:38;65.55;;;39.38;;
55082;SDS011;40978;52.850;6.506;2023-05-15T02:43:05;61.42;;;40.28;;
55082;SDS011;40978;52.850;6.506;2023-05-15T02:45:32;86.38;;;40.90;;
55082;SDS011;40978;52.850;6.506;2023-05-15T02:47:59;157.43;;;41.78;;
55082;SDS011;40978;52.850;6.506;2023-05-15T02:50:26;71.25;;;41.63;;
55082;SDS011;40978;52.850;6.506;2023-05-15T02:53:00;127.50;;;44.55;;
55082;SDS011;40978;52.850;6.506;2023-05-15T02:55:29;179.60;;;44.28;;
55082;SDS011;40978;52.850;6.506;2023-05-15T02:57:55;88.90;;;43.45;;
55082;SDS011;40978;52.850;6.506;2023-05-15T03:00:22;87.45;;;45.15;;
55082;SDS011;40978;52.850;6.506;2023-05-15T03:02:47;68.20;;;43.42;;
55082;SDS011;40978;52.850;6.506;2023-05-15T03:05:13;58.85;;;42.42;;
55082;SDS011;40978;52.850;6.506;2023-05-15T03:07:39;131.15;;;42.05;;
55082;SDS011;40978;52.850;6.506;2023-05-15T03:10:07;122.07;;;41.50;;
55082;SDS011;40978;52.850;6.506;2023-05-15T03:12:33;72.05;;;41.60;;
55082;SDS011;40978;52.850;6.506;2023-05-15T03:14:59;326.58;;;54.60;;
55082;SDS011;40978;52.850;6.506;2023-05-15T03:17:25;122.93;;;46.00;;
55082;SDS011;40978;52.850;6.506;2023-05-15T03:19:51;102.03;;;45.65;;
55082;SDS011;40978;52.850;6.506;2023-05-15T03:22:17;64.78;;;42.35;;
55082;SDS011;40978;52.850;6.506;2023-05-15T03:24:43;161.13;;;45.58;;
55082;SDS011;40978;52.850;6.506;2023-05-15T03:27:08;73.03;;;43.38;;
55082;SDS011;40978;52.850;6.506;2023-05-15T03:29:34;57.63;;;42.72;;
55082;SDS011;40978;52.850;6.506;2023-05-15T03:32:00;70.53;;;42.10;;
55082;SDS011;40978;52.850;6.506;2023-05-15T03:34:25;106.53;;;38.58;;
55082;SDS011;40978;52.850;6.506;2023-05-15T03:36:51;75.95;;;39.53;;
55082;SDS011;40978;52.850;6.506;2023-05-15T03:39:17;72.57;;;37.38;;
55082;SDS011;40978;52.850;6.506;2023-05-15T03:41:43;75.28;;;38.53;;
55082;SDS011;40978;52.850;6.506;2023-05-15T03:44:08;123.50;;;38.85;;
55082;SDS011;40978;52.850;6.506;2023-05-15T03:46:34;59.58;;;33.80;;
55082;SDS011;40978;52.850;6.506;2023-05-15T03:49:00;69.30;;;35.28;;
55082;SDS011;40978;52.850;6.506;2023-05-15T03:51:25;51.95;;;34.13;;
55082;SDS011;40978;52.850;6.506;2023-05-15T03:53:51;46.10;;;34.47;;
55082;SDS011;40978;52.850;6.506;2023-05-15T03:56:17;49.92;;;35.38;;
55082;SDS011;40978;52.850;6.506;2023-05-15T03:58:43;45.35;;;33.30;;
55082;SDS011;40978;52.850;6.506;2023-05-15T04:01:08;49.03;;;36.40;;
55082;SDS011;40978;52.850;6.506;2023-05-15T04:03:34;46.40;;;34.70;;
55082;SDS011;40978;52.850;6.506;2023-05-15T04:06:00;49.67;;;35.15;;
55082;SDS011;40978;52.850;6.506;2023-05-15T04:08:25;46.80;;;35.67;;
55082;SDS011;40978;52.850;6.506;2023-05-15T04:10:51;46.75;;;37.45;;
55082;SDS011;40978;52.850;6.506;2023-05-15T04:13:17;46.90;;;35.50;;
55082;SDS011;40978;52.850;6.506;2023-05-15T04:15:42;46.58;;;34.60;;
55082;SDS011;40978;52.850;6.506;2023-05-15T04:18:08;45.22;;;35.05;;
55082;SDS011;40978;52.850;6.506;2023-05-15T04:20:34;43.38;;;33.50;;
55082;SDS011;40978;52.850;6.506;2023-05-15T04:22:59;41.60;;;33.08;;
55082;SDS011;40978;52.850;6.506;2023-05-15T04:25:28;38.83;;;29.70;;
55082;SDS011;40978;52.850;6.506;2023-05-15T04:27:53;38.60;;;30.35;;
55082;SDS011;40978;52.850;6.506;2023-05-15T04:30:20;39.08;;;29.65;;
55082;SDS011;40978;52.850;6.506;2023-05-15T04:32:45;40.92;;;30.83;;
55082;SDS011;40978;52.850;6.506;2023-05-15T04:35:11;41.10;;;31.05;;
55082;SDS011;40978;52.850;6.506;2023-05-15T04:37:38;39.58;;;30.52;;
55082;SDS011;40978;52.850;6.506;2023-05-15T04:40:05;39.70;;;31.65;;
55082;SDS011;40978;52.850;6.506;2023-05-15T04:42:32;40.78;;;32.15;;
55082;SDS011;40978;52.850;6.506;2023-05-15T04:44:58;47.53;;;33.10;;
55082;SDS011;40978;52.850;6.506;2023-05-15T04:47:24;43.80;;;32.30;;
55082;SDS011;40978;52.850;6.506;2023-05-15T04:49:49;41.90;;;32.20;;
55082;SDS011;40978;52.850;6.506;2023-05-15T04:52:15;47.13;;;32.78;;
55082;SDS011;40978;52.850;6.506;2023-05-15T04:54:41;38.75;;;31.65;;
55082;SDS011;40978;52.850;6.506;2023-05-15T04:57:07;40.80;;;30.30;;
55082;SDS011;40978;52.850;6.506;2023-05-15T04:59:33;41.72;;;30.60;;
55082;SDS011;40978;52.850;6.506;2023-05-15T05:02:00;36.08;;;30.10;;
55082;SDS011;40978;52.850;6.506;2023-05-15T05:04:26;40.55;;;30.92;;
55082;SDS011;40978;52.850;6.506;2023-05-15T05:06:51;37.63;;;31.45;;
55082;SDS011;40978;52.850;6.506;2023-05-15T05:09:18;37.53;;;31.65;;
55082;SDS011;40978;52.850;6.506;2023-05-15T05:11:44;37.10;;;30.27;;
55082;SDS011;40978;52.850;6.506;2023-05-15T05:14:11;35.05;;;30.05;;
55082;SDS011;40978;52.850;6.506;2023-05-15T05:16:37;36.67;;;30.10;;
55082;SDS011;40978;52.850;6.506;2023-05-15T05:19:04;36.67;;;30.88;;
55082;SDS011;40978;52.850;6.506;2023-05-15T05:21:30;34.92;;;29.73;;
55082;SDS011;40978;52.850;6.506;2023-05-15T05:23:56;38.35;;;31.98;;
55082;SDS011;40978;52.850;6.506;2023-05-15T05:26:22;35.35;;;30.98;;
55082;SDS011;40978;52.850;6.506;2023-05-15T05:28:48;37.50;;;31.98;;
55082;SDS011;40978;52.850;6.506;2023-05-15T05:31:14;37.90;;;31.52;;
55082;SDS011;40978;52.850;6.506;2023-05-15T05:33:39;39.45;;;32.42;;
55082;SDS011;40978;52.850;6.506;2023-05-15T05:36:05;34.67;;;30.90;;
55082;SDS011;40978;52.850;6.506;2023-05-15T05:38:31;37.83;;;32.72;;
55082;SDS011;40978;52.850;6.506;2023-05-15T05:40:57;36.78;;;31.42;;
55082;SDS011;40978;52.850;6.506;2023-05-15T05:43:25;36.15;;;31.17;;
55082;SDS011;40978;52.850;6.506;2023-05-15T05:45:51;35.50;;;29.98;;
55082;SDS011;40978;52.850;6.506;2023-05-15T05:48:16;34.95;;;29.85;;
55082;SDS011;40978;52.850;6.506;2023-05-15T05:50:42;33.22;;;29.00;;
55082;SDS011;40978;52.850;6.506;2023-05-15T05:53:08;32.75;;;28.42;;
55082;SDS011;40978;52.850;6.506;2023-05-15T05:55:34;32.80;;;29.23;;
55082;SDS011;40978;52.850;6.506;2023-05-15T05:58:00;31.58;;;27.83;;
55082;SDS011;40978;52.850;6.506;2023-05-15T06:00:26;30.92;;;27.63;;
55082;SDS011;40978;52.850;6.506;2023-05-15T06:02:55;32.13;;;28.60;;
55082;SDS011;40978;52.850;6.506;2023-05-15T06:05:22;31.17;;;27.92;;
55082;SDS011;40978;52.850;6.506;2023-05-15T06:07:51;31.33;;;28.08;;
55082;SDS011;40978;52.850;6.506;2023-05-15T06:10:18;31.08;;;27.60;;
55082;SDS011;40978;52.850;6.506;2023-05-15T06:12:44;30.58;;;27.48;;
55082;SDS011;40978;52.850;6.506;2023-05-15T06:15:11;31.38;;;28.08;;
55082;SDS011;40978;52.850;6.506;2023-05-15T06:17:37;29.52;;;26.45;;
55082;SDS011;40978;52.850;6.506;2023-05-15T06:20:03;29.95;;;26.77;;
55082;SDS011;40978;52.850;6.506;2023-05-15T06:22:36;30.17;;;27.17;;
55082;SDS011;40978;52.850;6.506;2023-05-15T06:25:03;31.02;;;27.75;;
55082;SDS011;40978;52.850;6.506;2023-05-15T06:27:30;29.95;;;26.95;;
55082;SDS011;40978;52.850;6.506;2023-05-15T06:29:56;29.48;;;26.30;;
55082;SDS011;40978;52.850;6.506;2023-05-15T06:32:22;28.73;;;25.73;;
55082;SDS011;40978;52.850;6.506;2023-05-15T06:34:48;27.77;;;25.08;;
55082;SDS011;40978;52.850;6.506;2023-05-15T06:37:14;28.83;;;25.73;;
55082;SDS011;40978;52.850;6.506;2023-05-15T06:39:39;32.42;;;28.30;;
55082;SDS011;40978;52.850;6.506;2023-05-15T06:42:05;30.73;;;27.58;;
55082;SDS011;40978;52.850;6.506;2023-05-15T06:44:31;31.70;;;27.20;;
55082;SDS011;40978;52.850;6.506;2023-05-15T06:46:57;31.00;;;27.90;;
55082;SDS011;40978;52.850;6.506;2023-05-15T06:49:23;28.10;;;25.33;;
55082;SDS011;40978;52.850;6.506;2023-05-15T06:51:49;28.52;;;24.63;;
55082;SDS011;40978;52.850;6.506;2023-05-15T06:54:15;27.55;;;24.85;;
55082;SDS011;40978;52.850;6.506;2023-05-15T06:56:41;25.38;;;22.85;;
55082;SDS011;40978;52.850;6.506;2023-05-15T06:59:07;24.85;;;22.23;;
55082;SDS011;40978;52.850;6.506;2023-05-15T07:01:32;26.00;;;23.42;;
55082;SDS011;40978;52.850;6.506;2023-05-15T07:03:58;24.23;;;21.85;;
55082;SDS011;40978;52.850;6.506;2023-05-15T07:06:24;21.65;;;19.48;;
55082;SDS011;40978;52.850;6.506;2023-05-15T07:08:50;21.80;;;19.55;;
55082;SDS011;40978;52.850;6.506;2023-05-15T07:11:16;22.35;;;20.08;;
55082;SDS011;40978;52.850;6.506;2023-05-15T07:13:42;23.38;;;19.83;;
55082;SDS011;40978;52.850;6.506;2023-05-15T07:16:08;21.38;;;19.38;;
55082;SDS011;40978;52.850;6.506;2023-05-15T07:18:33;20.10;;;18.30;;
55082;SDS011;40978;52.850;6.506;2023-05-15T07:21:00;21.23;;;19.10;;
55082;SDS011;40978;52.850;6.506;2023-05-15T07:23:26;20.08;;;18.13;;
55082;SDS011;40978;52.850;6.506;2023-05-15T07:25:52;19.75;;;17.95;;
55082;SDS011;40978;52.850;6.506;2023-05-15T07:28:18;19.17;;;17.25;;
55082;SDS011;40978;52.850;6.506;2023-05-15T07:30:44;19.10;;;16.92;;
55082;SDS011;40978;52.850;6.506;2023-05-15T07:33:10;19.10;;;17.30;;
55082;SDS011;40978;52.850;6.506;2023-05-15T07:35:35;18.38;;;16.67;;
55082;SDS011;40978;52.850;6.506;2023-05-15T07:38:01;19.73;;;17.85;;
55082;SDS011;40978;52.850;6.506;2023-05-15T07:40:27;19.23;;;17.38;;
55082;SDS011;40978;52.850;6.506;2023-05-15T07:42:52;18.08;;;16.48;;
55082;SDS011;40978;52.850;6.506;2023-05-15T07:45:18;17.77;;;16.17;;
55082;SDS011;40978;52.850;6.506;2023-05-15T07:47:44;18.05;;;16.45;;
55082;SDS011;40978;52.850;6.506;2023-05-15T07:50:11;18.73;;;16.58;;
55082;SDS011;40978;52.850;6.506;2023-05-15T07:52:37;16.83;;;15.23;;
55082;SDS011;40978;52.850;6.506;2023-05-15T07:55:03;17.83;;;16.23;;
55082;SDS011;40978;52.850;6.506;2023-05-15T07:57:29;16.50;;;15.00;;
55082;SDS011;40978;52.850;6.506;2023-05-15T07:59:56;17.63;;;15.82;;
55082;SDS011;40978;52.850;6.506;2023-05-15T08:02:22;17.52;;;15.93;;
55082;SDS011;40978;52.850;6.506;2023-05-15T08:04:48;17.35;;;15.75;;
55082;SDS011;40978;52.850;6.506;2023-05-15T08:07:13;17.80;;;16.20;;
55082;SDS011;40978;52.850;6.506;2023-05-15T08:09:39;17.80;;;16.20;;
55082;SDS011;40978;52.850;6.506;2023-05-15T08:14:48;16.58;;;15.18;;
55082;SDS011;40978;52.850;6.506;2023-05-15T08:17:14;17.23;;;15.65;;
55082;SDS011;40978;52.850;6.506;2023-05-15T08:19:40;17.13;;;15.60;;
55082;SDS011;40978;52.850;6.506;2023-05-15T08:22:06;16.23;;;14.80;;
55082;SDS011;40978;52.850;6.506;2023-05-15T08:24:32;16.58;;;15.15;;
55082;SDS011;40978;52.850;6.506;2023-05-15T08:26:58;16.35;;;14.68;;
55082;SDS011;40978;52.850;6.506;2023-05-15T08:29:24;16.58;;;15.00;;
55082;SDS011;40978;52.850;6.506;2023-05-15T08:31:50;14.57;;;13.35;;
55082;SDS011;40978;52.850;6.506;2023-05-15T08:34:16;16.45;;;14.95;;
55082;SDS011;40978;52.850;6.506;2023-05-15T08:36:43;15.30;;;14.00;;
55082;SDS011;40978;52.850;6.506;2023-05-15T08:39:09;14.90;;;13.60;;
55082;SDS011;40978;52.850;6.506;2023-05-15T08:44:39;16.48;;;15.07;;
55082;SDS011;40978;52.850;6.506;2023-05-15T08:47:05;16.90;;;15.05;;
55082;SDS011;40978;52.850;6.506;2023-05-15T08:52:16;17.05;;;15.43;;
55082;SDS011;40978;52.850;6.506;2023-05-15T08:54:43;16.90;;;15.50;;
55082;SDS011;40978;52.850;6.506;2023-05-15T08:57:11;15.52;;;14.13;;
55082;SDS011;40978;52.850;6.506;2023-05-15T08:59:38;15.00;;;13.80;;
55082;SDS011;40978;52.850;6.506;2023-05-15T09:02:04;15.98;;;14.63;;
55082;SDS011;40978;52.850;6.506;2023-05-15T09:04:30;15.15;;;13.85;;
55082;SDS011;40978;52.850;6.506;2023-05-15T09:06:57;15.00;;;13.70;;
55082;SDS011;40978;52.850;6.506;2023-05-15T09:09:24;13.65;;;12.55;;
55082;SDS011;40978;52.850;6.506;2023-05-15T09:11:52;15.18;;;12.80;;
55082;SDS011;40978;52.850;6.506;2023-05-15T09:14:18;12.55;;;11.45;;
55082;SDS011;40978;52.850;6.506;2023-05-15T09:16:44;14.10;;;12.95;;
55082;SDS011;40978;52.850;6.506;2023-05-15T09:19:16;14.55;;;13.25;;
55082;SDS011;40978;52.850;6.506;2023-05-15T09:21:46;14.02;;;12.90;;
55082;SDS011;40978;52.850;6.506;2023-05-15T09:24:22;14.18;;;12.88;;
55082;SDS011;40978;52.850;6.506;2023-05-15T09:27:01;13.57;;;12.43;;
55082;SDS011;40978;52.850;6.506;2023-05-15T09:29:28;15.57;;;14.18;;
55082;SDS011;40978;52.850;6.506;2023-05-15T09:31:58;13.95;;;12.63;;
55082;SDS011;40978;52.850;6.506;2023-05-15T09:34:30;12.45;;;11.40;;
55082;SDS011;40978;52.850;6.506;2023-05-15T09:37:01;13.18;;;11.88;;
55082;SDS011;40978;52.850;6.506;2023-05-15T09:39:28;13.57;;;12.25;;
55082;SDS011;40978;52.850;6.506;2023-05-15T09:42:07;11.25;;;10.25;;
55082;SDS011;40978;52.850;6.506;2023-05-15T09:44:41;11.30;;;10.30;;
55082;SDS011;40978;52.850;6.506;2023-05-15T09:47:08;12.38;;;11.38;;
55082;SDS011;40978;52.850;6.506;2023-05-15T09:49:36;10.55;;;9.65;;
55082;SDS011;40978;52.850;6.506;2023-05-15T09:52:01;12.02;;;10.95;;
55082;SDS011;40978;52.850;6.506;2023-05-15T09:54:31;12.52;;;11.23;;
55082;SDS011;40978;52.850;6.506;2023-05-15T09:57:06;12.43;;;11.27;;
55082;SDS011;40978;52.850;6.506;2023-05-15T09:59:47;12.23;;;11.05;;
55082;SDS011;40978;52.850;6.506;2023-05-15T10:02:21;12.07;;;11.07;;
55082;SDS011;40978;52.850;6.506;2023-05-15T10:04:52;11.25;;;10.18;;
55082;SDS011;40978;52.850;6.506;2023-05-15T10:07:26;10.70;;;9.57;;
55082;SDS011;40978;52.850;6.506;2023-05-15T10:09:53;10.43;;;9.40;;
55082;SDS011;40978;52.850;6.506;2023-05-15T10:12:19;10.48;;;9.40;;
55082;SDS011;40978;52.850;6.506;2023-05-15T10:14:49;10.40;;;9.05;;
55082;SDS011;40978;52.850;6.506;2023-05-15T10:17:19;9.43;;;8.63;;
55082;SDS011;40978;52.850;6.506;2023-05-15T10:19:46;8.82;;;7.80;;
55082;SDS011;40978;52.850;6.506;2023-05-15T10:22:27;9.50;;;8.57;;
55082;SDS011;40978;52.850;6.506;2023-05-15T10:25:07;64.90;;;58.42;;
55082;SDS011;40978;52.850;6.506;2023-05-15T10:27:39;8.43;;;6.78;;
55082;SDS011;40978;52.850;6.506;2023-05-15T10:30:08;11.13;;;8.30;;
55082;SDS011;40978;52.850;6.506;2023-05-15T10:32:47;10.40;;;8.52;;
55082;SDS011;40978;52.850;6.506;2023-05-15T10:35:14;19.88;;;18.17;;
55082;SDS011;40978;52.850;6.506;2023-05-15T10:37:41;8.50;;;7.68;;
55082;SDS011;40978;52.850;6.506;2023-05-15T10:40:14;8.25;;;7.45;;
55082;SDS011;40978;52.850;6.506;2023-05-15T10:42:52;9.45;;;8.57;;
55082;SDS011;40978;52.850;6.506;2023-05-15T10:45:22;8.15;;;7.43;;
55082;SDS011;40978;52.850;6.506;2023-05-15T10:47:48;8.60;;;7.75;;
55082;SDS011;40978;52.850;6.506;2023-05-15T10:50:17;9.15;;;8.25;;
55082;SDS011;40978;52.850;6.506;2023-05-15T10:52:44;8.70;;;7.82;;
55082;SDS011;40978;52.850;6.506;2023-05-15T10:55:21;8.88;;;7.38;;
55082;SDS011;40978;52.850;6.506;2023-05-15T10:57:53;10.70;;;7.93;;
55082;SDS011;40978;52.850;6.506;2023-05-15T11:00:27;7.30;;;6.60;;
55082;SDS011;40978;52.850;6.506;2023-05-15T11:02:58;8.65;;;7.85;;
55082;SDS011;40978;52.850;6.506;2023-05-15T11:05:25;9.48;;;8.60;;
55082;SDS011;40978;52.850;6.506;2023-05-15T11:10:58;8.45;;;7.72;;
55082;SDS011;40978;52.850;6.506;2023-05-15T11:13:24;18.13;;;16.58;;
55082;SDS011;40978;52.850;6.506;2023-05-15T11:16:22;11.68;;;9.50;;
55082;SDS011;40978;52.850;6.506;2023-05-15T11:22:15;8.98;;;8.07;;
55082;SDS011;40978;52.850;6.506;2023-05-15T11:25:03;8.93;;;8.02;;
55082;SDS011;40978;52.850;6.506;2023-05-15T11:27:41;7.93;;;7.22;;
55082;SDS011;40978;52.850;6.506;2023-05-15T11:30:44;9.40;;;8.50;;
55082;SDS011;40978;52.850;6.506;2023-05-15T11:33:18;8.57;;;7.68;;
55082;SDS011;40978;52.850;6.506;2023-05-15T11:35:47;7.60;;;6.97;;
55082;SDS011;40978;52.850;6.506;2023-05-15T11:38:25;6.85;;;6.20;;
55082;SDS011;40978;52.850;6.506;2023-05-15T11:40:52;6.10;;;5.50;;
55082;SDS011;40978;52.850;6.506;2023-05-15T11:43:35;7.28;;;6.40;;
55082;SDS011;40978;52.850;6.506;2023-05-15T11:46:10;7.45;;;6.60;;
55082;SDS011;40978;52.850;6.506;2023-05-15T11:48:42;8.00;;;6.25;;
55082;SDS011;40978;52.850;6.506;2023-05-15T11:51:14;8.90;;;6.78;;
55082;SDS011;40978;52.850;6.506;2023-05-15T11:53:42;6.93;;;6.28;;
55082;SDS011;40978;52.850;6.506;2023-05-15T11:56:11;8.73;;;7.88;;
55082;SDS011;40978;52.850;6.506;2023-05-15T11:58:41;9.07;;;7.93;;
55082;SDS011;40978;52.850;6.506;2023-05-15T12:01:09;11.95;;;10.93;;
55082;SDS011;40978;52.850;6.506;2023-05-15T12:03:35;8.35;;;7.65;;
55082;SDS011;40978;52.850;6.506;2023-05-15T12:06:01;7.70;;;7.00;;
55082;SDS011;40978;52.850;6.506;2023-05-15T12:08:31;7.13;;;6.53;;
55082;SDS011;40978;52.850;6.506;2023-05-15T12:10:58;7.63;;;7.03;;
55082;SDS011;40978;52.850;6.506;2023-05-15T12:13:25;8.32;;;7.00;;
55082;SDS011;40978;52.850;6.506;2023-05-15T12:15:50;7.75;;;7.05;;
55082;SDS011;40978;52.850;6.506;2023-05-15T12:18:18;6.63;;;5.97;;
55082;SDS011;40978;52.850;6.506;2023-05-15T12:20:43;7.28;;;6.57;;
55082;SDS011;40978;52.850;6.506;2023-05-15T12:23:13;8.43;;;7.63;;
55082;SDS011;40978;52.850;6.506;2023-05-15T12:25:40;7.80;;;6.68;;
55082;SDS011;40978;52.850;6.506;2023-05-15T12:28:08;8.05;;;7.13;;
55082;SDS011;40978;52.850;6.506;2023-05-15T12:30:35;7.75;;;7.10;;
55082;SDS011;40978;52.850;6.506;2023-05-15T12:33:03;8.85;;;8.05;;
55082;SDS011;40978;52.850;6.506;2023-05-15T12:35:40;9.70;;;7.95;;
55082;SDS011;40978;52.850;6.506;2023-05-15T12:38:07;8.93;;;8.02;;
55082;SDS011;40978;52.850;6.506;2023-05-15T12:40:38;9.32;;;8.38;;
55082;SDS011;40978;52.850;6.506;2023-05-15T12:43:04;10.18;;;9.18;;
55082;SDS011;40978;52.850;6.506;2023-05-15T12:45:31;9.43;;;8.50;;
55082;SDS011;40978;52.850;6.506;2023-05-15T12:47:59;9.25;;;7.80;;
55082;SDS011;40978;52.850;6.506;2023-05-15T12:50:25;9.02;;;8.23;;
55082;SDS011;40978;52.850;6.506;2023-05-15T12:52:59;7.93;;;7.20;;
55082;SDS011;40978;52.850;6.506;2023-05-15T12:57:58;10.15;;;9.25;;
55082;SDS011;40978;52.850;6.506;2023-05-15T13:00:32;7.82;;;7.13;;
55082;SDS011;40978;52.850;6.506;2023-05-15T13:03:02;8.18;;;7.47;;
55082;SDS011;40978;52.850;6.506;2023-05-15T13:05:32;8.30;;;6.78;;
55082;SDS011;40978;52.850;6.506;2023-05-15T13:07:59;8.52;;;7.28;;
55082;SDS011;40978;52.850;6.506;2023-05-15T13:10:27;7.25;;;6.53;;
55082;SDS011;40978;52.850;6.506;2023-05-15T13:12:53;7.15;;;6.30;;
55082;SDS011;40978;52.850;6.506;2023-05-15T13:17:53;8.38;;;6.72;;
55082;SDS011;40978;52.850;6.506;2023-05-15T13:20:23;7.93;;;6.63;;
55082;SDS011;40978;52.850;6.506;2023-05-15T13:22:48;9.10;;;7.47;;
55082;SDS011;40978;52.850;6.506;2023-05-15T13:25:18;7.63;;;6.93;;
55082;SDS011;40978;52.850;6.506;2023-05-15T13:27:48;8.50;;;7.47;;
55082;SDS011;40978;52.850;6.506;2023-05-15T13:30:14;9.82;;;8.05;;
55082;SDS011;40978;52.850;6.506;2023-05-15T13:32:41;8.60;;;7.55;;
55082;SDS011;40978;52.850;6.506;2023-05-15T13:35:07;10.73;;;7.97;;
55082;SDS011;40978;52.850;6.506;2023-05-15T13:37:34;7.22;;;6.53;;
55082;SDS011;40978;52.850;6.506;2023-05-15T13:40:00;6.78;;;6.18;;
55082;SDS011;40978;52.850;6.506;2023-05-15T13:42:25;8.25;;;6.60;;
55082;SDS011;40978;52.850;6.506;2023-05-15T13:44:51;24.63;;;21.10;;
55082;SDS011;40978;52.850;6.506;2023-05-15T13:47:17;11.25;;;8.45;;
55082;SDS011;40978;52.850;6.506;2023-05-15T13:49:43;9.57;;;8.55;;
55082;SDS011;40978;52.850;6.506;2023-05-15T13:52:09;8.30;;;7.50;;
55082;SDS011;40978;52.850;6.506;2023-05-15T13:54:35;8.15;;;7.45;;
55082;SDS011;40978;52.850;6.506;2023-05-15T13:57:01;7.13;;;6.43;;
55082;SDS011;40978;52.850;6.506;2023-05-15T13:59:26;8.73;;;7.38;;
55082;SDS011;40978;52.850;6.506;2023-05-15T14:01:52;7.22;;;6.38;;
55082;SDS011;40978;52.850;6.506;2023-05-15T14:04:18;7.45;;;6.75;;
55082;SDS011;40978;52.850;6.506;2023-05-15T14:06:44;9.15;;;7.70;;
55082;SDS011;40978;52.850;6.506;2023-05-15T14:09:10;8.48;;;6.90;;
55082;SDS011;40978;52.850;6.506;2023-05-15T14:11:36;11.10;;;8.02;;
55082;SDS011;40978;52.850;6.506;2023-05-15T14:14:01;10.02;;;7.43;;
55082;SDS011;40978;52.850;6.506;2023-05-15T14:16:28;9.48;;;8.18;;
55082;SDS011;40978;52.850;6.506;2023-05-15T14:18:54;7.40;;;6.63;;
55082;SDS011;40978;52.850;6.506;2023-05-15T14:21:28;6.97;;;6.28;;
55082;SDS011;40978;52.850;6.506;2023-05-15T14:24:02;6.47;;;5.88;;
55082;SDS011;40978;52.850;6.506;2023-05-15T14:26:35;10.00;;;6.47;;
55082;SDS011;40978;52.850;6.506;2023-05-15T14:29:11;8.38;;;6.75;;
55082;SDS011;40978;52.850;6.506;2023-05-15T14:31:43;7.68;;;6.95;;
55082;SDS011;40978;52.850;6.506;2023-05-15T14:34:16;9.30;;;7.40;;
55082;SDS011;40978;52.850;6.506;2023-05-15T14:36:51;7.50;;;6.80;;
55082;SDS011;40978;52.850;6.506;2023-05-15T14:39:22;8.30;;;7.07;;
55082;SDS011;40978;52.850;6.506;2023-05-15T14:41:57;8.48;;;7.68;;
55082;SDS011;40978;52.850;6.506;2023-05-15T14:44:36;8.02;;;7.22;;
55082;SDS011;40978;52.850;6.506;2023-05-15T14:47:10;7.00;;;6.30;;
55082;SDS011;40978;52.850;6.506;2023-05-15T14:49:44;7.72;;;6.88;;
55082;SDS011;40978;52.850;6.506;2023-05-15T14:52:17;9.10;;;7.18;;
55082;SDS011;40978;52.850;6.506;2023-05-15T14:54:51;6.85;;;6.13;;
55082;SDS011;40978;52.850;6.506;2023-05-15T14:57:29;8.73;;;7.88;;
55082;SDS011;40978;52.850;6.506;2023-05-15T14:59:55;9.60;;;8.68;;
55082;SDS011;40978;52.850;6.506;2023-05-15T15:02:20;10.65;;;9.43;;
55082;SDS011;40978;52.850;6.506;2023-05-15T15:04:46;9.93;;;9.02;;
55082;SDS011;40978;52.850;6.506;2023-05-15T15:07:12;11.30;;;10.07;;
55082;SDS011;40978;52.850;6.506;2023-05-15T15:09:37;12.38;;;11.13;;
55082;SDS011;40978;52.850;6.506;2023-05-15T15:12:04;17.50;;;15.65;;
55082;SDS011;40978;52.850;6.506;2023-05-15T15:14:30;14.40;;;13.00;;
55082;SDS011;40978;52.850;6.506;2023-05-15T15:16:55;13.73;;;12.52;;